createdAt,value
2023-03-31T00:00:50.565Z,0.00
2023-03-31T00:01:50.579Z,0.00
2023-03-31T00:02:50.649Z,0.00
2023-03-31T00:03:50.741Z,0.00
2023-03-31T00:04:50.643Z,0.00
2023-03-31T00:05:50.636Z,0.00
2023-03-31T00:06:50.650Z,0.00
2023-03-31T00:07:50.673Z,0.00
2023-03-31T00:08:50.689Z,0.00
2023-03-31T00:09:50.694Z,0.00
2023-03-31T00:10:50.713Z,0.00
2023-03-31T00:11:50.732Z,0.00
2023-03-31T00:12:50.743Z,0.00
2023-03-31T00:13:50.793Z,0.00
2023-03-31T00:14:50.763Z,0.00
2023-03-31T00:15:51.584Z,0.00
2023-03-31T00:16:50.928Z,0.00
2023-03-31T00:17:50.862Z,0.00
2023-03-31T00:18:51.026Z,0.00
2023-03-31T00:19:50.841Z,0.00
2023-03-31T00:20:50.848Z,0.00
2023-03-31T00:21:50.863Z,0.00
2023-03-31T00:22:50.880Z,0.00
2023-03-31T00:23:50.893Z,0.00
2023-03-31T00:24:50.908Z,0.00
2023-03-31T00:25:50.918Z,0.00
2023-03-31T00:26:50.942Z,0.00
2023-03-31T00:27:50.948Z,0.00
2023-03-31T00:28:50.964Z,0.00
2023-03-31T00:29:50.981Z,0.00
2023-03-31T00:30:50.989Z,0.00
2023-03-31T00:31:51.021Z,0.00
2023-03-31T00:32:51.072Z,0.00
2023-03-31T00:33:51.045Z,0.00
2023-03-31T00:34:51.054Z,0.00
2023-03-31T00:35:51.075Z,0.00
2023-03-31T00:36:51.074Z,0.00
2023-03-31T00:37:51.091Z,0.00
2023-03-31T00:38:51.100Z,0.00
2023-03-31T00:39:51.116Z,0.00
2023-03-31T00:40:53.719Z,0.00
2023-03-31T00:41:51.146Z,0.00
2023-03-31T00:42:51.166Z,0.00
2023-03-31T00:43:51.177Z,0.00
2023-03-31T00:44:51.191Z,0.00
2023-03-31T00:45:51.303Z,0.00
2023-03-31T00:46:51.228Z,0.00
2023-03-31T00:47:51.245Z,0.00
2023-03-31T00:48:51.238Z,0.00
2023-03-31T00:49:51.263Z,0.00
2023-03-31T00:50:51.271Z,0.00
2023-03-31T00:51:51.282Z,0.00
2023-03-31T00:52:51.298Z,0.00
2023-03-31T00:53:51.311Z,0.00
2023-03-31T00:54:51.324Z,0.00
2023-03-31T00:55:51.337Z,0.00
2023-03-31T00:56:51.393Z,0.00
2023-03-31T00:57:51.368Z,0.00
2023-03-31T00:58:51.387Z,0.00
2023-03-31T00:59:51.411Z,0.00
2023-03-31T01:00:51.418Z,0.00
2023-03-31T01:01:51.420Z,0.00
2023-03-31T01:02:51.543Z,0.00
2023-03-31T01:03:51.507Z,0.00
2023-03-31T01:04:51.478Z,0.00
2023-03-31T01:05:51.476Z,0.00
2023-03-31T01:06:51.490Z,0.00
2023-03-31T01:07:51.506Z,0.00
2023-03-31T01:08:51.519Z,0.00
2023-03-31T01:09:51.535Z,0.00
2023-03-31T01:10:51.549Z,0.00
2023-03-31T01:11:51.566Z,0.00
2023-03-31T01:12:51.577Z,0.00
2023-03-31T01:13:51.590Z,0.00
2023-03-31T01:14:51.604Z,0.00
2023-03-31T01:15:51.616Z,0.00
2023-03-31T01:16:51.693Z,0.00
2023-03-31T01:17:51.837Z,0.00
2023-03-31T01:18:51.656Z,0.00
2023-03-31T01:19:51.666Z,0.00
2023-03-31T01:20:51.682Z,0.00
2023-03-31T01:21:51.695Z,0.00
2023-03-31T01:22:51.709Z,0.00
2023-03-31T01:23:51.721Z,0.00
2023-03-31T01:24:51.737Z,0.00
2023-03-31T01:25:51.748Z,0.00
2023-03-31T01:26:51.765Z,0.00
2023-03-31T01:27:51.790Z,0.00
2023-03-31T01:28:51.794Z,0.00
2023-03-31T01:29:51.805Z,0.00
2023-03-31T01:30:51.856Z,0.00
2023-03-31T01:31:51.913Z,0.00
2023-03-31T01:32:51.946Z,0.00
2023-03-31T01:33:51.862Z,0.00
2023-03-31T01:34:51.870Z,0.00
2023-03-31T01:35:51.926Z,0.00
2023-03-31T01:36:51.905Z,0.00
2023-03-31T01:37:51.910Z,0.00
2023-03-31T01:38:51.932Z,0.00
2023-03-31T01:39:51.936Z,0.00
2023-03-31T01:40:51.950Z,0.00
2023-03-31T01:41:51.960Z,0.00
2023-03-31T01:42:51.975Z,0.00
2023-03-31T01:43:52.005Z,0.00
2023-03-31T01:44:52.005Z,0.00
2023-03-31T01:45:52.037Z,0.00
2023-03-31T01:46:52.079Z,0.00
2023-03-31T01:47:52.120Z,0.00
2023-03-31T01:48:52.059Z,0.00
2023-03-31T01:49:52.068Z,0.00
2023-03-31T01:50:52.089Z,0.00
2023-03-31T01:51:52.131Z,0.00
2023-03-31T01:52:52.110Z,0.00
2023-03-31T01:53:52.123Z,0.00
2023-03-31T01:54:52.145Z,0.00
2023-03-31T01:55:52.154Z,0.00
2023-03-31T01:56:52.173Z,0.00
2023-03-31T01:57:52.176Z,0.00
2023-03-31T01:58:52.191Z,0.00
2023-03-31T01:59:52.210Z,0.00
2023-03-31T02:00:52.297Z,0.00
2023-03-31T02:01:52.247Z,0.00
2023-03-31T02:02:52.300Z,0.00
2023-03-31T02:03:52.272Z,0.00
2023-03-31T02:04:52.272Z,0.00
2023-03-31T02:05:52.283Z,0.00
2023-03-31T02:06:52.302Z,0.00
2023-03-31T02:07:52.312Z,0.00
2023-03-31T02:08:52.324Z,0.00
2023-03-31T02:09:52.344Z,0.00
2023-03-31T02:10:52.364Z,0.00
2023-03-31T02:11:52.364Z,0.00
2023-03-31T02:12:52.379Z,0.00
2023-03-31T02:13:52.393Z,0.00
2023-03-31T02:14:52.405Z,0.00
2023-03-31T02:15:52.452Z,0.00
2023-03-31T02:16:52.498Z,0.00
2023-03-31T02:17:52.456Z,0.00
2023-03-31T02:18:52.458Z,0.00
2023-03-31T02:19:52.471Z,0.00
2023-03-31T02:20:52.493Z,0.00
2023-03-31T02:21:52.509Z,0.00
2023-03-31T02:22:52.543Z,0.00
2023-03-31T02:23:52.549Z,0.00
2023-03-31T02:24:52.541Z,0.00
2023-03-31T02:25:52.552Z,0.00
2023-03-31T02:26:52.572Z,0.00
2023-03-31T02:27:52.578Z,0.00
2023-03-31T02:28:52.601Z,0.00
2023-03-31T02:29:52.610Z,0.00
2023-03-31T02:30:52.625Z,0.00
2023-03-31T02:31:52.702Z,0.00
2023-03-31T02:32:52.713Z,0.00
2023-03-31T02:33:52.665Z,0.00
2023-03-31T02:34:52.680Z,0.00
2023-03-31T02:35:52.783Z,0.00
2023-03-31T02:36:52.707Z,0.00
2023-03-31T02:37:52.720Z,0.00
2023-03-31T02:38:52.735Z,0.00
2023-03-31T02:39:52.750Z,0.00
2023-03-31T02:40:52.769Z,0.00
2023-03-31T02:41:52.774Z,0.00
2023-03-31T02:42:52.791Z,0.00
2023-03-31T02:43:52.803Z,0.00
2023-03-31T02:44:52.811Z,0.00
2023-03-31T02:45:52.866Z,0.00
2023-03-31T02:46:52.838Z,0.00
2023-03-31T02:47:52.886Z,0.00
2023-03-31T02:48:52.871Z,0.00
2023-03-31T02:49:52.882Z,0.00
2023-03-31T02:50:52.908Z,0.00
2023-03-31T02:51:52.916Z,0.00
2023-03-31T02:52:52.928Z,0.00
2023-03-31T02:53:52.939Z,0.00
2023-03-31T02:54:52.956Z,0.00
2023-03-31T02:55:52.969Z,0.00
2023-03-31T02:56:53.061Z,0.00
2023-03-31T02:57:52.999Z,0.00
2023-03-31T02:58:53.016Z,0.00
2023-03-31T02:59:53.026Z,0.00
2023-03-31T03:00:53.068Z,0.00
2023-03-31T03:01:53.050Z,0.00
2023-03-31T03:02:53.210Z,0.00
2023-03-31T03:03:53.077Z,0.00
2023-03-31T03:04:53.095Z,0.00
2023-03-31T03:05:53.110Z,0.00
2023-03-31T03:06:53.120Z,0.00
2023-03-31T03:07:53.137Z,0.00
2023-03-31T03:08:53.150Z,0.00
2023-03-31T03:09:53.166Z,0.00
2023-03-31T03:10:53.178Z,0.00
2023-03-31T03:11:53.189Z,0.00
2023-03-31T03:12:53.211Z,0.00
2023-03-31T03:13:53.222Z,0.00
2023-03-31T03:14:53.235Z,0.00
2023-03-31T03:15:53.246Z,0.00
2023-03-31T03:16:53.355Z,0.00
2023-03-31T03:17:53.362Z,0.00
2023-03-31T03:18:53.289Z,0.00
2023-03-31T03:19:53.337Z,0.00
2023-03-31T03:20:53.320Z,0.00
2023-03-31T03:21:53.332Z,0.00
2023-03-31T03:22:53.351Z,0.00
2023-03-31T03:23:53.372Z,0.00
2023-03-31T03:24:53.411Z,0.00
2023-03-31T03:25:53.400Z,0.00
2023-03-31T03:26:53.412Z,0.00
2023-03-31T03:27:53.423Z,0.00
2023-03-31T03:28:53.435Z,0.00
2023-03-31T03:29:53.453Z,0.00
2023-03-31T03:30:53.513Z,0.00
2023-03-31T03:31:53.493Z,0.00
2023-03-31T03:32:53.541Z,0.00
2023-03-31T03:33:53.518Z,0.00
2023-03-31T03:34:53.545Z,0.00
2023-03-31T03:35:53.557Z,0.00
2023-03-31T03:36:53.544Z,0.00
2023-03-31T03:37:53.557Z,0.00
2023-03-31T03:38:53.578Z,0.00
2023-03-31T03:39:53.588Z,0.00
2023-03-31T03:40:53.601Z,0.00
2023-03-31T03:41:53.612Z,0.00
2023-03-31T03:42:53.627Z,0.00
2023-03-31T03:43:53.641Z,0.00
2023-03-31T03:44:53.657Z,0.00
2023-03-31T03:45:53.705Z,0.00
2023-03-31T03:46:53.691Z,0.00
2023-03-31T03:47:53.716Z,0.00
2023-03-31T03:48:53.714Z,0.00
2023-03-31T03:49:53.726Z,0.00
2023-03-31T03:50:53.741Z,0.00
2023-03-31T03:51:53.769Z,0.00
2023-03-31T03:52:53.768Z,0.00
2023-03-31T03:53:53.780Z,0.00
2023-03-31T03:54:53.793Z,0.00
2023-03-31T03:55:53.809Z,0.00
2023-03-31T03:56:53.855Z,0.00
2023-03-31T03:57:53.838Z,0.00
2023-03-31T03:58:53.849Z,0.00
2023-03-31T03:59:53.865Z,0.00
2023-03-31T04:00:53.878Z,0.00
2023-03-31T04:01:53.916Z,0.00
2023-03-31T04:02:53.926Z,0.00
2023-03-31T04:03:53.921Z,0.00
2023-03-31T04:04:54.003Z,0.00
2023-03-31T04:05:53.946Z,0.00
2023-03-31T04:06:53.967Z,0.00
2023-03-31T04:07:53.977Z,0.00
2023-03-31T04:08:53.995Z,0.00
2023-03-31T04:09:54.006Z,0.00
2023-03-31T04:10:54.017Z,0.00
2023-03-31T04:11:54.037Z,0.00
2023-03-31T04:12:54.048Z,4.00
2023-03-31T04:13:54.060Z,4.00
2023-03-31T04:14:54.074Z,4.00
2023-03-31T04:15:54.100Z,4.00
2023-03-31T04:16:54.107Z,4.00
2023-03-31T04:17:54.178Z,4.00
2023-03-31T04:18:54.134Z,8.00
2023-03-31T04:19:54.148Z,8.00
2023-03-31T04:20:54.160Z,8.00
2023-03-31T04:21:54.175Z,8.00
2023-03-31T04:22:54.191Z,12.00
2023-03-31T04:23:54.203Z,12.00
2023-03-31T04:24:54.217Z,16.00
2023-03-31T04:25:54.232Z,20.00
2023-03-31T04:26:54.247Z,24.00
2023-03-31T04:27:54.263Z,32.00
2023-03-31T04:28:54.288Z,40.00
2023-03-31T04:29:54.284Z,44.00
2023-03-31T04:30:54.306Z,52.00
2023-03-31T04:31:54.386Z,52.00
2023-03-31T04:32:54.339Z,60.00
2023-03-31T04:33:54.340Z,72.00
2023-03-31T04:34:54.357Z,80.00
2023-03-31T04:35:54.390Z,92.00
2023-03-31T04:36:54.385Z,100.00
2023-03-31T04:37:54.398Z,116.00
2023-03-31T04:38:54.415Z,132.00
2023-03-31T04:39:54.426Z,140.00
2023-03-31T04:40:54.441Z,156.00
2023-03-31T04:41:54.456Z,180.00
2023-03-31T04:42:54.469Z,204.00
2023-03-31T04:43:54.485Z,236.00
2023-03-31T04:44:54.508Z,276.00
2023-03-31T04:45:54.592Z,304.00
2023-03-31T04:46:54.525Z,320.00
2023-03-31T04:47:54.581Z,352.00
2023-03-31T04:48:54.557Z,404.00
2023-03-31T04:49:54.570Z,464.00
2023-03-31T04:50:54.578Z,528.00
2023-03-31T04:51:54.600Z,568.00
2023-03-31T04:52:54.607Z,592.00
2023-03-31T04:53:54.690Z,612.00
2023-03-31T04:54:54.633Z,648.00
2023-03-31T04:55:54.647Z,700.00
2023-03-31T04:56:54.716Z,760.00
2023-03-31T04:57:54.674Z,804.00
2023-03-31T04:58:54.689Z,860.00
2023-03-31T04:59:54.700Z,924.00
2023-03-31T05:00:54.730Z,1004.00
2023-03-31T05:01:54.732Z,1064.00
2023-03-31T05:02:54.823Z,1108.00
2023-03-31T05:03:54.765Z,1132.00
2023-03-31T05:04:54.778Z,1164.00
2023-03-31T05:05:54.790Z,1208.00
2023-03-31T05:06:54.805Z,1248.00
2023-03-31T05:07:54.835Z,1256.00
2023-03-31T05:08:54.837Z,1248.00
2023-03-31T05:09:54.844Z,1268.00
2023-03-31T05:10:54.863Z,1308.00
2023-03-31T05:11:54.878Z,1336.00
2023-03-31T05:12:54.892Z,1368.00
2023-03-31T05:13:54.915Z,1404.00
2023-03-31T05:14:54.918Z,1444.00
2023-03-31T05:15:54.936Z,1500.00
2023-03-31T05:16:54.967Z,1564.00
2023-03-31T05:17:55.003Z,1644.00
2023-03-31T05:18:54.974Z,1740.00
2023-03-31T05:19:54.989Z,1884.00
2023-03-31T05:20:55.003Z,2060.00
2023-03-31T05:21:55.018Z,2228.00
2023-03-31T05:22:55.034Z,2372.00
2023-03-31T05:23:55.068Z,2540.00
2023-03-31T05:24:55.058Z,2728.00
2023-03-31T05:25:55.076Z,2916.00
2023-03-31T05:26:55.084Z,3136.00
2023-03-31T05:27:55.100Z,3316.00
2023-03-31T05:28:55.112Z,3392.00
2023-03-31T05:29:55.128Z,3404.00
2023-03-31T05:30:55.144Z,3432.00
2023-03-31T05:31:55.177Z,3612.00
2023-03-31T05:32:55.219Z,3928.00
2023-03-31T05:33:55.185Z,4344.00
2023-03-31T05:34:55.199Z,4816.00
2023-03-31T05:35:55.236Z,5236.00
2023-03-31T05:36:55.237Z,5460.00
2023-03-31T05:37:55.237Z,5452.00
2023-03-31T05:38:55.250Z,5788.00
2023-03-31T05:39:55.271Z,5992.00
2023-03-31T05:40:55.293Z,6420.00
2023-03-31T05:41:55.297Z,5928.00
2023-03-31T05:42:55.305Z,6536.00
2023-03-31T05:43:55.321Z,6888.00
2023-03-31T05:44:55.333Z,7268.00
2023-03-31T05:45:55.375Z,7260.00
2023-03-31T05:46:55.372Z,6628.00
2023-03-31T05:47:55.502Z,5596.00
2023-03-31T05:48:55.403Z,5200.00
2023-03-31T05:49:55.402Z,4984.00
2023-03-31T05:50:55.418Z,5012.00
2023-03-31T05:51:55.432Z,5340.00
2023-03-31T05:52:55.451Z,5684.00
2023-03-31T05:53:55.460Z,5720.00
2023-03-31T05:54:55.479Z,5352.00
2023-03-31T05:55:55.499Z,5064.00
2023-03-31T05:56:55.567Z,4924.00
2023-03-31T05:57:55.554Z,4648.00
2023-03-31T05:58:55.533Z,4344.00
2023-03-31T05:59:55.550Z,4140.00
2023-03-31T06:00:55.620Z,3992.00
2023-03-31T06:01:55.737Z,3860.00
2023-03-31T06:02:55.685Z,3680.00
2023-03-31T06:03:55.626Z,3480.00
2023-03-31T06:04:55.621Z,3404.00
2023-03-31T06:05:55.637Z,3464.00
2023-03-31T06:06:55.650Z,3532.00
2023-03-31T06:07:55.670Z,3612.00
2023-03-31T06:08:55.680Z,3716.00
2023-03-31T06:09:55.692Z,3856.00
2023-03-31T06:10:55.715Z,4044.00
2023-03-31T06:11:55.729Z,4264.00
2023-03-31T06:12:55.740Z,4524.00
2023-03-31T06:13:55.756Z,4832.00
2023-03-31T06:14:55.990Z,5240.00
2023-03-31T06:15:55.801Z,5592.00
2023-03-31T06:16:57.739Z,5888.00
2023-03-31T06:17:55.885Z,6132.00
2023-03-31T06:18:55.841Z,6212.00
2023-03-31T06:19:55.856Z,6160.00
2023-03-31T06:20:55.859Z,6012.00
2023-03-31T06:21:55.868Z,5892.00
2023-03-31T06:22:55.894Z,5684.00
2023-03-31T06:23:55.907Z,5328.00
2023-03-31T06:24:55.936Z,5036.00
2023-03-31T06:25:56.169Z,4652.00
2023-03-31T06:26:55.946Z,4356.00
2023-03-31T06:27:55.980Z,4296.00
2023-03-31T06:28:55.984Z,4400.00
2023-03-31T06:29:55.989Z,4452.00
2023-03-31T06:30:55.998Z,4260.00
2023-03-31T06:31:56.074Z,3988.00
2023-03-31T06:32:56.105Z,4020.00
2023-03-31T06:33:56.039Z,4112.00
2023-03-31T06:34:56.062Z,4212.00
2023-03-31T06:35:56.085Z,4280.00
2023-03-31T06:36:56.100Z,4368.00
2023-03-31T06:37:56.106Z,4512.00
2023-03-31T06:38:56.120Z,4720.00
2023-03-31T06:39:56.124Z,5024.00
2023-03-31T06:40:56.150Z,5372.00
2023-03-31T06:41:56.157Z,5752.00
2023-03-31T06:42:56.178Z,6104.00
2023-03-31T06:43:56.200Z,6424.00
2023-03-31T06:44:56.204Z,6688.00
2023-03-31T06:45:56.488Z,6884.00
2023-03-31T06:46:56.231Z,7036.00
2023-03-31T06:47:56.282Z,7116.00
2023-03-31T06:48:56.267Z,6912.00
2023-03-31T06:49:56.286Z,6624.00
2023-03-31T06:50:56.290Z,6112.00
2023-03-31T06:51:56.302Z,6032.00
2023-03-31T06:52:56.321Z,6400.00
2023-03-31T06:53:56.332Z,6164.00
2023-03-31T06:54:56.348Z,6076.00
2023-03-31T06:55:56.361Z,6192.00
2023-03-31T06:56:56.385Z,6500.00
2023-03-31T06:57:56.404Z,6904.00
2023-03-31T06:58:56.410Z,7576.00
2023-03-31T06:59:56.671Z,8720.00
2023-03-31T07:00:56.470Z,11356.00
2023-03-31T07:01:56.507Z,12064.00
2023-03-31T07:02:56.539Z,12620.00
2023-03-31T07:03:56.485Z,12232.00
2023-03-31T07:04:56.496Z,11424.00
2023-03-31T07:05:56.509Z,9276.00
2023-03-31T07:06:56.525Z,10724.00
2023-03-31T07:07:56.560Z,10972.00
2023-03-31T07:08:56.554Z,11192.00
2023-03-31T07:09:56.571Z,11136.00
2023-03-31T07:10:56.590Z,11184.00
2023-03-31T07:11:57.012Z,10828.00
2023-03-31T07:12:56.623Z,10788.00
2023-03-31T07:13:56.630Z,10964.00
2023-03-31T07:14:56.647Z,10908.00
2023-03-31T07:15:56.732Z,10872.00
2023-03-31T07:16:56.730Z,11208.00
2023-03-31T07:17:56.781Z,14128.00
2023-03-31T07:18:56.717Z,15624.00
2023-03-31T07:19:56.730Z,14468.00
2023-03-31T07:20:56.747Z,15484.00
2023-03-31T07:21:56.790Z,16216.00
2023-03-31T07:22:56.780Z,17248.00
2023-03-31T07:23:56.795Z,19296.00
2023-03-31T07:24:56.809Z,20224.00
2023-03-31T07:25:56.840Z,20256.00
2023-03-31T07:26:56.843Z,18624.00
2023-03-31T07:27:56.885Z,17536.00
2023-03-31T07:28:56.933Z,15804.00
2023-03-31T07:29:56.903Z,14816.00
2023-03-31T07:30:56.915Z,15892.00
2023-03-31T07:31:56.989Z,13416.00
2023-03-31T07:32:57.001Z,12924.00
2023-03-31T07:33:56.964Z,15636.00
2023-03-31T07:34:56.982Z,19232.00
2023-03-31T07:36:10.083Z,16544.00
2023-03-31T07:36:57.043Z,14000.00
2023-03-31T07:37:57.035Z,15668.00
2023-03-31T07:38:57.063Z,19392.00
2023-03-31T07:39:57.075Z,19552.00
2023-03-31T07:41:07.727Z,20640.00
2023-03-31T07:41:57.120Z,21120.00
2023-03-31T07:42:57.154Z,21280.00
2023-03-31T07:43:57.148Z,20096.00
2023-03-31T07:44:57.164Z,20224.00
2023-03-31T07:45:57.221Z,18560.00
2023-03-31T07:46:57.209Z,20160.00
2023-03-31T07:47:57.251Z,22624.00
2023-03-31T07:48:57.237Z,23648.00
2023-03-31T07:49:57.260Z,23776.00
2023-03-31T07:50:57.274Z,18720.00
2023-03-31T07:51:57.295Z,13216.00
2023-03-31T07:52:57.311Z,12180.00
2023-03-31T07:53:57.329Z,12668.00
2023-03-31T07:54:57.349Z,13144.00
2023-03-31T07:55:57.368Z,13412.00
2023-03-31T07:56:57.438Z,14156.00
2023-03-31T07:57:57.407Z,15060.00
2023-03-31T07:58:57.993Z,16016.00
2023-03-31T07:59:57.440Z,16640.00
2023-03-31T08:00:57.463Z,16708.00
2023-03-31T08:01:57.522Z,16672.00
2023-03-31T08:02:57.519Z,16664.00
2023-03-31T08:03:57.575Z,16632.00
2023-03-31T08:04:57.532Z,16584.00
2023-03-31T08:05:57.551Z,16624.00
2023-03-31T08:06:57.592Z,16732.00
2023-03-31T08:07:57.593Z,16860.00
2023-03-31T08:08:57.611Z,16980.00
2023-03-31T08:09:57.630Z,17152.00
2023-03-31T08:10:57.646Z,17152.00
2023-03-31T08:11:57.669Z,17020.00
2023-03-31T08:12:57.685Z,17004.00
2023-03-31T08:13:57.710Z,17012.00
2023-03-31T08:14:57.743Z,16704.00
2023-03-31T08:15:57.797Z,16244.00
2023-03-31T08:16:57.789Z,16032.00
2023-03-31T08:17:57.803Z,15692.00
2023-03-31T08:18:57.801Z,15508.00
2023-03-31T08:19:59.508Z,15204.00
2023-03-31T08:20:57.843Z,14928.00
2023-03-31T08:21:57.862Z,15400.00
2023-03-31T08:22:57.877Z,15952.00
2023-03-31T08:23:57.895Z,17312.00
2023-03-31T08:24:57.925Z,19136.00
2023-03-31T08:25:57.936Z,20928.00
2023-03-31T08:26:57.954Z,22208.00
2023-03-31T08:27:57.982Z,23200.00
2023-03-31T08:28:57.992Z,23232.00
2023-03-31T08:29:58.011Z,22944.00
2023-03-31T08:30:58.034Z,21952.00
2023-03-31T08:31:58.094Z,20800.00
2023-03-31T08:32:58.115Z,19808.00
2023-03-31T08:33:58.089Z,19008.00
2023-03-31T08:34:58.115Z,19008.00
2023-03-31T08:35:58.137Z,19168.00
2023-03-31T08:36:58.153Z,19296.00
2023-03-31T08:37:58.171Z,18880.00
2023-03-31T08:38:58.191Z,17696.00
2023-03-31T08:39:58.212Z,16140.00
2023-03-31T08:40:58.230Z,15152.00
2023-03-31T08:41:58.248Z,15112.00
2023-03-31T08:42:58.275Z,15576.00
2023-03-31T08:43:58.299Z,16320.00
2023-03-31T08:44:58.317Z,17312.00
2023-03-31T08:45:58.368Z,18144.00
2023-03-31T08:46:58.357Z,18848.00
2023-03-31T08:47:58.414Z,19808.00
2023-03-31T08:48:58.392Z,20608.00
2023-03-31T08:49:58.423Z,20992.00
2023-03-31T08:50:58.437Z,20704.00
2023-03-31T08:51:58.456Z,19744.00
2023-03-31T08:52:58.477Z,18816.00
2023-03-31T08:53:58.497Z,18112.00
2023-03-31T08:54:58.523Z,18016.00
2023-03-31T08:55:58.547Z,18720.00
2023-03-31T08:56:58.588Z,19232.00
2023-03-31T08:57:58.583Z,19328.00
2023-03-31T08:58:58.635Z,18848.00
2023-03-31T08:59:58.629Z,18432.00
2023-03-31T09:00:58.674Z,18528.00
2023-03-31T09:01:58.680Z,18528.00
2023-03-31T09:02:58.801Z,17536.00
2023-03-31T09:03:58.847Z,16232.00
2023-03-31T09:04:58.722Z,15476.00
2023-03-31T09:06:00.970Z,14608.00
2023-03-31T09:06:58.767Z,13624.00
2023-03-31T09:07:58.788Z,12940.00
2023-03-31T09:08:58.807Z,11964.00
2023-03-31T09:09:58.830Z,11920.00
2023-03-31T09:10:58.854Z,12184.00
2023-03-31T09:11:58.868Z,12860.00
2023-03-31T09:12:58.908Z,14080.00
2023-03-31T09:13:58.924Z,15556.00
2023-03-31T09:14:58.969Z,17016.00
2023-03-31T09:15:58.955Z,19104.00
2023-03-31T09:16:59.047Z,20320.00
2023-03-31T09:17:59.038Z,21408.00
2023-03-31T09:18:59.018Z,22432.00
2023-03-31T09:19:59.049Z,22304.00
2023-03-31T09:20:59.064Z,22144.00
2023-03-31T09:21:59.086Z,21984.00
2023-03-31T09:22:59.092Z,21760.00
2023-03-31T09:23:59.117Z,21568.00
2023-03-31T09:24:59.152Z,21536.00
2023-03-31T09:25:59.162Z,21120.00
2023-03-31T09:26:59.178Z,20480.00
2023-03-31T09:27:59.198Z,19808.00
2023-03-31T09:28:59.232Z,18688.00
2023-03-31T09:29:59.240Z,17664.00
2023-03-31T09:30:59.261Z,17792.00
2023-03-31T09:31:59.298Z,16540.00
2023-03-31T09:32:59.320Z,16052.00
2023-03-31T09:33:59.323Z,16484.00
2023-03-31T09:34:59.346Z,17528.00
2023-03-31T09:35:59.396Z,19264.00
2023-03-31T09:36:59.387Z,19424.00
2023-03-31T09:37:59.407Z,17296.00
2023-03-31T09:38:59.427Z,16660.00
2023-03-31T09:39:59.450Z,15028.00
2023-03-31T09:40:59.484Z,13260.00
2023-03-31T09:41:59.494Z,12340.00
2023-03-31T09:42:59.531Z,12664.00
2023-03-31T09:43:59.533Z,13584.00
2023-03-31T09:44:59.556Z,14804.00
2023-03-31T09:46:09.289Z,17088.00
2023-03-31T09:46:59.628Z,20192.00
2023-03-31T09:47:59.664Z,23680.00
2023-03-31T09:48:59.642Z,26528.00
2023-03-31T09:49:59.665Z,26464.00
2023-03-31T09:50:59.678Z,26240.00
2023-03-31T09:51:59.705Z,26592.00
2023-03-31T09:52:59.737Z,26944.00
2023-03-31T09:53:59.744Z,26816.00
2023-03-31T09:54:59.763Z,25408.00
2023-03-31T09:55:59.783Z,22176.00
2023-03-31T09:56:59.856Z,18016.00
2023-03-31T09:57:59.827Z,14116.00
2023-03-31T09:58:59.886Z,10412.00
2023-03-31T09:59:59.870Z,8052.00
2023-03-31T10:00:59.903Z,6584.00
2023-03-31T10:02:00.061Z,6284.00
2023-03-31T10:02:59.957Z,6408.00
2023-03-31T10:03:59.985Z,6608.00
2023-03-31T10:04:59.997Z,7120.00
2023-03-31T10:06:00.022Z,7248.00
2023-03-31T10:07:00.017Z,7132.00
2023-03-31T10:08:00.044Z,7404.00
2023-03-31T10:09:00.144Z,8188.00
2023-03-31T10:10:00.210Z,9208.00
2023-03-31T10:11:00.150Z,9952.00
2023-03-31T10:12:00.176Z,10368.00
2023-03-31T10:13:00.256Z,10108.00
2023-03-31T10:14:00.202Z,9676.00
2023-03-31T10:15:00.192Z,10044.00
2023-03-31T10:16:00.263Z,11236.00
2023-03-31T10:17:00.231Z,13272.00
2023-03-31T10:18:00.275Z,16884.00
2023-03-31T10:19:00.262Z,21696.00
2023-03-31T10:20:00.296Z,26304.00
2023-03-31T10:21:00.308Z,29696.00
2023-03-31T10:22:00.324Z,30944.00
2023-03-31T10:23:00.345Z,30560.00
2023-03-31T10:24:00.360Z,29696.00
2023-03-31T10:25:00.382Z,28896.00
2023-03-31T10:26:00.405Z,27968.00
2023-03-31T10:27:00.425Z,25184.00
2023-03-31T10:28:00.443Z,24224.00
2023-03-31T10:29:00.463Z,22656.00
2023-03-31T10:30:00.510Z,20704.00
2023-03-31T10:31:00.533Z,18560.00
2023-03-31T10:32:00.523Z,16208.00
2023-03-31T10:33:08.479Z,14916.00
2023-03-31T10:34:00.562Z,14332.00
2023-03-31T10:35:00.596Z,13552.00
2023-03-31T10:36:00.711Z,12884.00
2023-03-31T10:37:00.627Z,12380.00
2023-03-31T10:38:00.647Z,12584.00
2023-03-31T10:39:00.668Z,12484.00
2023-03-31T10:40:00.687Z,12120.00
2023-03-31T10:41:00.794Z,11400.00
2023-03-31T10:42:00.733Z,10828.00
2023-03-31T10:43:00.747Z,10284.00
2023-03-31T10:44:00.796Z,10448.00
2023-03-31T10:45:00.793Z,11224.00
2023-03-31T10:46:00.811Z,12180.00
2023-03-31T10:47:00.898Z,12668.00
2023-03-31T10:48:00.893Z,12744.00
2023-03-31T10:49:00.874Z,13400.00
2023-03-31T10:50:00.889Z,15448.00
2023-03-31T10:51:00.911Z,19296.00
2023-03-31T10:52:00.950Z,24480.00
2023-03-31T10:53:00.957Z,27360.00
2023-03-31T10:54:01.016Z,28480.00
2023-03-31T10:55:01.011Z,28960.00
2023-03-31T10:56:01.012Z,28672.00
2023-03-31T10:57:01.071Z,28704.00
2023-03-31T10:58:01.049Z,28928.00
2023-03-31T10:59:06.028Z,28640.00
2023-03-31T11:00:01.094Z,27744.00
2023-03-31T11:01:01.110Z,26848.00
2023-03-31T11:02:01.145Z,26208.00
2023-03-31T11:03:01.270Z,25792.00
2023-03-31T11:04:01.231Z,25184.00
2023-03-31T11:05:01.191Z,24608.00
2023-03-31T11:06:01.212Z,24416.00
2023-03-31T11:07:01.253Z,24832.00
2023-03-31T11:08:01.256Z,25696.00
2023-03-31T11:09:01.284Z,25856.00
2023-03-31T11:10:01.304Z,24896.00
2023-03-31T11:11:01.320Z,24512.00
2023-03-31T11:12:01.356Z,26528.00
2023-03-31T11:13:01.366Z,30496.00
2023-03-31T11:14:01.378Z,31296.00
2023-03-31T11:15:01.402Z,29056.00
2023-03-31T11:16:01.577Z,26240.00
2023-03-31T11:17:01.461Z,26400.00
2023-03-31T11:18:01.486Z,24832.00
2023-03-31T11:19:01.491Z,21984.00
2023-03-31T11:20:01.508Z,20000.00
2023-03-31T11:21:01.526Z,19104.00
2023-03-31T11:22:01.563Z,19648.00
2023-03-31T11:23:01.569Z,19776.00
2023-03-31T11:24:01.599Z,19840.00
2023-03-31T11:25:01.619Z,20192.00
2023-03-31T11:26:01.630Z,20736.00
2023-03-31T11:27:01.653Z,21344.00
2023-03-31T11:28:01.689Z,21696.00
2023-03-31T11:29:01.705Z,21504.00
2023-03-31T11:30:01.746Z,21792.00
2023-03-31T11:31:01.739Z,22080.00
2023-03-31T11:32:01.865Z,20960.00
2023-03-31T11:33:01.854Z,19968.00
2023-03-31T11:34:01.834Z,19744.00
2023-03-31T11:35:01.830Z,19328.00
2023-03-31T11:36:01.862Z,19392.00
2023-03-31T11:37:01.895Z,19872.00
2023-03-31T11:38:01.925Z,20576.00
2023-03-31T11:39:01.909Z,21248.00
2023-03-31T11:40:01.953Z,21536.00
2023-03-31T11:41:01.958Z,21472.00
2023-03-31T11:42:01.983Z,21152.00
2023-03-31T11:43:01.997Z,20128.00
2023-03-31T11:44:02.025Z,18464.00
2023-03-31T11:45:02.049Z,16932.00
2023-03-31T11:46:02.073Z,15128.00
2023-03-31T11:47:02.082Z,13684.00
2023-03-31T11:48:02.110Z,13304.00
2023-03-31T11:49:02.125Z,13092.00
2023-03-31T11:50:02.146Z,12416.00
2023-03-31T11:51:02.164Z,11208.00
2023-03-31T11:52:02.188Z,10252.00
2023-03-31T11:53:02.211Z,10180.00
2023-03-31T11:54:02.241Z,7928.00
2023-03-31T11:55:03.316Z,6476.00
2023-03-31T11:56:02.283Z,7748.00
2023-03-31T11:57:02.331Z,10744.00
2023-03-31T11:58:02.320Z,13908.00
2023-03-31T11:59:02.340Z,17344.00
2023-03-31T12:00:02.358Z,19488.00
2023-03-31T12:01:03.406Z,21632.00
2023-03-31T12:02:02.407Z,23296.00
2023-03-31T12:03:02.522Z,24192.00
2023-03-31T12:04:02.531Z,24256.00
2023-03-31T12:05:02.485Z,24480.00
2023-03-31T12:06:02.549Z,25056.00
2023-03-31T12:07:02.646Z,25248.00
2023-03-31T12:08:02.520Z,25792.00
2023-03-31T12:09:02.538Z,25856.00
2023-03-31T12:10:02.587Z,26496.00
2023-03-31T12:11:02.599Z,26912.00
2023-03-31T12:12:02.616Z,27040.00
2023-03-31T12:13:03.315Z,27136.00
2023-03-31T12:14:02.645Z,27552.00
2023-03-31T12:15:02.662Z,27232.00
2023-03-31T12:16:02.705Z,26784.00
2023-03-31T12:17:02.707Z,26592.00
2023-03-31T12:18:02.735Z,25824.00
2023-03-31T12:19:02.756Z,25152.00
2023-03-31T12:20:02.799Z,23936.00
2023-03-31T12:21:02.813Z,22944.00
2023-03-31T12:22:02.829Z,22112.00